Time;durP1;ratioP1;P1;durP2;ratioP2;P2;SDS_P1;SDS_P2;PMS_P1;PMS_P2;Temp;Humidity;BMP_temperature;BMP_pressure;BME280_temperature;BME280_humidity;BME280_pressure;Samples;Min_cycle;Max_cycle;Signal;HPM_P1;HPM_P2
2022/05/01 00:00:18;;;;;;;22.65;14.98;;;10.10;99.90;;;;;;4983958;28;20025;-71
2022/05/01 00:02:43;;;;;;;24.05;15.02;;;10.10;99.90;;;;;;4987217;28;20038;-70
2022/05/01 00:05:09;;;;;;;25.90;16.58;;;10.10;99.90;;;;;;4985383;28;20023;-70
2022/05/01 00:07:35;;;;;;;21.90;15.02;;;10.10;99.90;;;;;;4968993;28;20387;-70
2022/05/01 00:10:00;;;;;;;22.83;14.43;;;10.20;99.90;;;;;;4995524;23;20042;-70
2022/05/01 00:12:26;;;;;;;25.70;16.70;;;10.20;99.90;;;;;;4964209;28;20030;-70
2022/05/01 00:14:52;;;;;;;21.80;15.18;;;10.20;99.90;;;;;;4982811;28;20033;-70
2022/05/01 00:17:17;;;;;;;25.05;15.82;;;10.20;99.90;;;;;;4982268;28;20038;-70
2022/05/01 00:19:43;;;;;;;26.98;15.65;;;10.20;99.90;;;;;;4981329;28;20462;-70
2022/05/01 00:22:09;;;;;;;26.15;16.83;;;10.20;99.90;;;;;;4981520;28;20041;-70
2022/05/01 00:24:36;;;;;;;23.15;15.98;;;10.10;99.90;;;;;;4978664;28;20394;-69
2022/05/01 00:27:02;;;;;;;26.52;16.60;;;10.10;99.90;;;;;;4977419;28;20528;-70
2022/05/01 00:29:27;;;;;;;27.42;16.60;;;10.10;99.90;;;;;;4983811;28;20134;-69
2022/05/01 00:31:53;;;;;;;28.10;18.17;;;10.10;99.90;;;;;;4979491;28;20419;-69
2022/05/01 00:37:03;;;;;;;27.15;16.98;;;10.10;99.90;;;;;;4981602;28;20061;-70
2022/05/01 00:39:29;;;;;;;29.83;17.80;;;10.10;99.90;;;;;;4979243;28;20054;-70
2022/05/01 00:41:55;;;;;;;27.17;17.15;;;10.20;99.90;;;;;;4959660;28;20073;-70
2022/05/01 00:44:21;;;;;;;25.92;16.65;;;10.10;99.90;;;;;;4978235;28;20026;-70
2022/05/01 00:46:52;;;;;;;25.85;17.05;;;10.10;99.90;;;;;;4980149;28;20364;-70
2022/05/01 00:49:25;;;;;;;26.35;17.73;;;10.10;99.90;;;;;;4977717;28;20022;-70
2022/05/01 00:51:54;;;;;;;28.65;16.90;;;10.10;99.90;;;;;;4960068;28;20100;-70
2022/05/01 00:54:24;;;;;;;27.00;17.20;;;10.10;99.90;;;;;;4966762;28;20030;-70
2022/05/01 00:56:52;;;;;;;30.50;18.98;;;10.10;99.90;;;;;;4978872;28;20513;-70
2022/05/01 00:59:19;;;;;;;30.73;18.20;;;10.10;99.90;;;;;;4961891;28;20027;-70
2022/05/01 01:01:46;;;;;;;31.58;18.25;;;10.00;99.90;;;;;;4975599;28;20034;-70
2022/05/01 01:04:12;;;;;;;33.40;20.98;;;10.00;99.90;;;;;;4974116;28;20054;-70
2022/05/01 01:06:42;;;;;;;32.83;19.55;;;10.00;99.90;;;;;;4980432;28;20035;-70
2022/05/01 01:09:09;;;;;;;31.30;19.42;;;9.90;99.90;;;;;;4961225;28;20025;-70
2022/05/01 01:11:36;;;;;;;31.58;19.40;;;9.90;99.90;;;;;;4958500;28;20045;-71
2022/05/01 01:14:05;;;;;;;31.52;19.83;;;9.80;99.90;;;;;;4980143;28;20498;-70
2022/05/01 01:16:32;;;;;;;32.15;18.95;;;9.80;99.90;;;;;;4979963;28;20034;-70
2022/05/01 01:18:58;;;;;;;31.58;18.33;;;9.80;99.90;;;;;;4975336;28;20439;-70
2022/05/01 01:21:24;;;;;;;28.63;18.33;;;9.70;99.90;;;;;;4973575;28;20034;-70
2022/05/01 01:23:52;;;;;;;29.60;19.65;;;9.60;99.90;;;;;;4974767;28;20030;-70
2022/05/01 01:26:19;;;;;;;28.90;18.67;;;9.60;99.90;;;;;;4980681;28;20125;-70
2022/05/01 01:28:46;;;;;;;30.10;18.45;;;9.60;99.90;;;;;;4975117;28;20394;-70
2022/05/01 01:34:03;;;;;;;28.33;17.52;;;9.60;99.90;;;;;;4977799;28;20526;-70
2022/05/01 01:36:32;;;;;;;30.45;17.25;;;9.60;99.90;;;;;;4975247;28;20554;-70
2022/05/01 01:38:57;;;;;;;28.77;18.05;;;9.50;99.90;;;;;;4978361;28;20100;-70
2022/05/01 01:41:30;;;;;;;28.77;17.50;;;9.50;99.90;;;;;;4978517;28;20038;-70
2022/05/01 01:43:56;;;;;;;30.60;17.27;;;9.40;99.90;;;;;;4966348;28;20050;-70
2022/05/01 01:46:23;;;;;;;25.48;16.25;;;9.40;99.90;;;;;;4974592;28;20019;-70
2022/05/01 01:48:49;;;;;;;26.35;16.63;;;9.40;99.90;;;;;;4978557;28;20030;-70
2022/05/01 01:51:15;;;;;;;27.60;16.17;;;9.40;99.90;;;;;;4960873;28;20073;-70
2022/05/01 01:53:41;;;;;;;25.88;17.02;;;9.40;99.90;;;;;;4978054;28;20046;-70
2022/05/01 01:56:10;;;;;;;27.85;16.50;;;9.30;99.90;;;;;;4978003;28;20113;-70
2022/05/01 01:58:40;;;;;;;28.35;17.30;;;9.30;99.90;;;;;;4961713;28;20050;-70
2022/05/01 02:01:07;;;;;;;27.98;16.33;;;9.30;99.90;;;;;;4978699;28;20034;-70
2022/05/01 02:03:34;;;;;;;29.98;16.60;;;9.30;99.90;;;;;;4974156;28;20029;-70
2022/05/01 02:06:00;;;;;;;27.85;17.15;;;9.20;99.90;;;;;;4976510;28;20026;-70
2022/05/01 02:08:26;;;;;;;25.52;15.93;;;9.20;99.90;;;;;;4961435;28;20033;-70
2022/05/01 02:10:53;;;;;;;25.50;16.38;;;9.10;99.90;;;;;;4959567;28;20039;-70
2022/05/01 02:13:19;;;;;;;23.85;15.05;;;9.00;99.90;;;;;;4966265;28;20022;-70
2022/05/01 02:15:45;;;;;;;25.33;15.35;;;9.00;99.90;;;;;;4975009;28;20467;-70
2022/05/01 02:18:11;;;;;;;22.23;14.68;;;8.90;99.90;;;;;;4978026;28;20193;-70
2022/05/01 02:23:24;;;;;;;22.15;14.43;;;8.80;99.90;;;;;;4977003;28;20061;-70
2022/05/01 02:25:50;;;;;;;23.83;15.32;;;8.70;99.90;;;;;;4974715;28;20463;-70
2022/05/01 02:28:16;;;;;;;23.05;13.85;;;8.70;99.90;;;;;;4966688;28;20025;-70
2022/05/01 02:30:42;;;;;;;23.67;14.25;;;8.60;99.90;;;;;;4960512;28;20038;-70
2022/05/01 02:33:09;;;;;;;20.33;13.00;;;8.60;99.90;;;;;;4982978;28;20475;-70
2022/05/01 02:35:38;;;;;;;22.35;13.75;;;8.50;99.90;;;;;;4979692;28;20034;-70
2022/05/01 02:38:04;;;;;;;20.98;13.13;;;8.50;99.90;;;;;;4976833;28;20385;-70
2022/05/01 02:40:31;;;;;;;23.88;14.68;;;8.50;99.90;;;;;;4976349;28;20504;-70
2022/05/01 02:42:59;;;;;;;23.88;15.00;;;8.40;99.90;;;;;;4972957;28;20088;-70
2022/05/01 02:45:28;;;;;;;25.30;15.75;;;8.40;99.90;;;;;;4978525;28;20037;-70
2022/05/01 02:47:55;;;;;;;27.15;15.73;;;8.40;99.90;;;;;;4962032;28;20471;-70
2022/05/01 02:50:22;;;;;;;23.48;14.02;;;8.40;99.90;;;;;;4974214;28;20023;-70
2022/05/01 02:52:51;;;;;;;22.15;15.15;;;8.30;99.90;;;;;;4964049;28;20506;-70
2022/05/01 02:55:17;;;;;;;27.67;14.23;;;8.30;99.90;;;;;;4961100;28;20027;-70
2022/05/01 02:57:43;;;;;;;24.10;14.45;;;8.30;99.90;;;;;;4978803;28;20038;-70
2022/05/01 03:00:16;;;;;;;21.60;14.75;;;8.30;99.90;;;;;;4980262;28;20034;-70
2022/05/01 03:02:46;;;;;;;22.00;14.55;;;8.20;99.90;;;;;;4975620;28;20026;-70
2022/05/01 03:05:12;;;;;;;25.05;14.40;;;8.30;99.90;;;;;;4980540;28;20030;-70
2022/05/01 03:07:38;;;;;;;25.00;14.48;;;8.20;99.90;;;;;;4976100;28;20660;-70
2022/05/01 03:10:05;;;;;;;20.52;13.52;;;8.10;99.90;;;;;;4980771;28;20045;-70
2022/05/01 03:12:30;;;;;;;24.25;14.05;;;8.10;99.90;;;;;;4959427;28;20530;-70
2022/05/01 03:14:57;;;;;;;21.23;14.27;;;8.10;99.90;;;;;;4975308;28;20030;-71
2022/05/01 03:17:24;;;;;;;26.77;16.58;;;8.00;99.90;;;;;;4972682;28;20495;-71
2022/05/01 03:22:34;;;;;;;28.27;16.23;;;8.00;99.90;;;;;;4973687;28;20113;-70
2022/05/01 03:24:59;;;;;;;28.35;16.20;;;8.00;99.90;;;;;;4981047;28;20491;-70
2022/05/01 03:27:25;;;;;;;28.65;16.83;;;8.00;99.90;;;;;;4975849;28;20022;-69
2022/05/01 03:32:36;;;;;;;26.50;16.13;;;8.10;99.90;;;;;;4974335;28;20157;-70
2022/05/01 03:35:02;;;;;;;27.73;15.85;;;8.00;99.90;;;;;;4977190;28;20100;-70
2022/05/01 03:37:29;;;;;;;26.20;16.13;;;8.00;99.90;;;;;;4978661;28;20053;-70
2022/05/01 03:39:55;;;;;;;28.85;17.08;;;8.10;99.90;;;;;;4960982;28;20034;-70
2022/05/01 03:42:20;;;;;;;27.95;15.77;;;8.10;99.90;;;;;;4976901;28;20035;-70
2022/05/01 03:44:46;;;;;;;28.58;16.92;;;8.10;99.90;;;;;;4978304;28;20487;-70
2022/05/01 03:47:12;;;;;;;25.48;16.10;;;8.10;99.90;;;;;;4958904;28;20027;-71
2022/05/01 03:49:37;;;;;;;26.08;15.40;;;8.10;99.90;;;;;;4971896;28;20026;-70
2022/05/01 03:52:03;;;;;;;28.40;16.80;;;8.20;99.90;;;;;;4978258;28;20034;-70
2022/05/01 03:54:29;;;;;;;29.70;16.70;;;8.20;99.90;;;;;;4975059;28;20118;-70
2022/05/01 03:56:55;;;;;;;30.10;17.35;;;8.30;99.90;;;;;;4975550;28;20395;-70
2022/05/01 03:59:20;;;;;;;28.83;17.10;;;8.30;99.90;;;;;;4975408;28;20672;-70
2022/05/01 04:01:46;;;;;;;27.63;16.98;;;8.30;99.90;;;;;;4978333;28;20426;-70
2022/05/01 04:04:12;;;;;;;26.85;16.15;;;8.40;99.90;;;;;;4973957;28;20023;-71
2022/05/01 04:06:37;;;;;;;26.00;16.05;;;8.40;99.90;;;;;;4974959;28;20069;-70
2022/05/01 04:09:03;;;;;;;28.30;15.95;;;8.40;99.90;;;;;;4961509;28;20113;-70
2022/05/01 04:11:29;;;;;;;28.52;16.67;;;8.40;99.90;;;;;;4977255;28;20030;-70
2022/05/01 04:13:54;;;;;;;27.65;16.45;;;8.50;99.90;;;;;;4977884;28;20066;-70
2022/05/01 04:16:20;;;;;;;27.52;15.95;;;8.50;99.90;;;;;;4974551;28;20023;-70
2022/05/01 04:18:46;;;;;;;28.92;17.02;;;8.50;99.90;;;;;;4975190;28;20026;-70
2022/05/01 04:21:13;;;;;;;28.70;17.27;;;8.50;99.90;;;;;;4975583;28;20129;-70
2022/05/01 04:23:39;;;;;;;31.55;17.05;;;8.50;99.90;;;;;;4972399;28;20507;-70
2022/05/01 04:26:05;;;;;;;25.50;16.20;;;8.60;99.90;;;;;;4974149;28;20387;-70
2022/05/01 04:28:31;;;;;;;25.15;15.65;;;8.60;99.90;;;;;;4976615;28;20045;-70
2022/05/01 04:30:57;;;;;;;26.02;15.88;;;8.60;99.90;;;;;;4974727;28;20039;-70
2022/05/01 04:33:22;;;;;;;25.63;15.57;;;8.60;99.90;;;;;;4976241;28;20026;-70
2022/05/01 04:35:50;;;;;;;30.58;17.05;;;8.60;99.90;;;;;;4973459;28;20018;-70
2022/05/01 04:38:17;;;;;;;26.63;15.55;;;8.70;99.90;;;;;;4978483;28;20740;-70
2022/05/01 04:40:47;;;;;;;23.10;14.68;;;8.70;99.90;;;;;;4975828;28;20014;-70
2022/05/01 04:43:19;;;;;;;26.27;16.15;;;8.70;99.90;;;;;;4973372;28;20041;-70
2022/05/01 04:45:46;;;;;;;26.33;15.00;;;8.70;99.90;;;;;;4962182;28;20080;-70
2022/05/01 04:48:13;;;;;;;24.33;14.55;;;8.80;99.90;;;;;;4976271;28;20057;-70
2022/05/01 04:50:40;;;;;;;26.20;15.20;;;8.80;99.90;;;;;;4960549;28;20027;-70
2022/05/01 04:53:07;;;;;;;24.60;14.60;;;8.80;99.90;;;;;;4980906;28;20030;-71
2022/05/01 04:55:34;;;;;;;26.25;15.07;;;8.90;99.90;;;;;;4975882;28;20062;-70
2022/05/01 04:57:59;;;;;;;23.25;13.98;;;8.90;99.90;;;;;;4979181;28;20041;-70
2022/05/01 05:00:29;;;;;;;22.88;14.57;;;8.90;99.90;;;;;;4980240;28;20022;-70
2022/05/01 05:02:56;;;;;;;25.05;14.43;;;9.00;99.90;;;;;;4981530;28;20038;-71
2022/05/01 05:05:23;;;;;;;23.52;15.00;;;9.00;99.90;;;;;;4975779;28;20040;-70
2022/05/01 05:07:49;;;;;;;23.95;14.52;;;9.10;99.90;;;;;;4963222;28;20035;-70
2022/05/01 05:10:16;;;;;;;22.98;14.27;;;9.10;99.90;;;;;;4978219;28;20105;-70
2022/05/01 05:12:44;;;;;;;23.80;14.13;;;9.20;99.90;;;;;;4980835;28;20038;-69
2022/05/01 05:15:13;;;;;;;23.88;14.65;;;9.20;99.90;;;;;;4979718;28;20053;-71
2022/05/01 05:17:39;;;;;;;21.05;13.25;;;9.20;99.90;;;;;;4959114;28;20403;-70
2022/05/01 05:20:07;;;;;;;21.95;14.43;;;9.30;99.90;;;;;;4979005;28;20068;-70
2022/05/01 05:22:33;;;;;;;20.58;13.52;;;9.30;99.90;;;;;;4979027;28;20038;-70
2022/05/01 05:24:59;;;;;;;20.30;12.95;;;9.30;99.90;;;;;;4982229;28;20026;-70
2022/05/01 05:27:28;;;;;;;19.73;12.60;;;9.40;99.90;;;;;;4962965;28;20023;-70
2022/05/01 05:29:54;;;;;;;21.23;12.88;;;9.40;99.90;;;;;;4963103;28;20121;-70
2022/05/01 05:32:20;;;;;;;22.10;12.90;;;9.50;99.90;;;;;;4974736;28;21029;-70
2022/05/01 05:34:47;;;;;;;20.75;12.30;;;9.50;99.90;;;;;;4975554;28;20029;-70
2022/05/01 05:37:13;;;;;;;22.35;12.80;;;9.50;99.90;;;;;;4978014;28;20396;-70
2022/05/01 05:39:38;;;;;;;19.30;13.20;;;9.40;99.90;;;;;;4977398;28;20093;-70
2022/05/01 05:42:04;;;;;;;19.83;12.35;;;9.40;99.90;;;;;;4983002;28;20030;-70
2022/05/01 05:44:30;;;;;;;20.73;13.50;;;9.40;99.90;;;;;;4969912;28;20036;-70
2022/05/01 05:46:56;;;;;;;20.75;13.68;;;9.50;99.90;;;;;;4963480;28;20026;-71
2022/05/01 05:49:21;;;;;;;19.95;13.23;;;9.50;99.90;;;;;;4972584;28;20026;-70
2022/05/01 05:51:47;;;;;;;21.92;11.98;;;9.50;99.90;;;;;;4980810;28;20030;-70
2022/05/01 05:54:12;;;;;;;22.83;13.00;;;9.60;99.90;;;;;;4978565;28;20030;-70
2022/05/01 05:56:38;;;;;;;21.48;13.48;;;9.60;99.90;;;;;;4974383;28;20045;-70
2022/05/01 05:59:04;;;;;;;19.40;13.10;;;9.60;99.90;;;;;;4972775;28;20045;-70
2022/05/01 06:01:29;;;;;;;20.52;13.20;;;9.60;99.90;;;;;;4969657;28;20023;-70
2022/05/01 06:03:55;;;;;;;20.70;13.60;;;9.60;99.90;;;;;;4963194;28;20023;-70
2022/05/01 06:06:21;;;;;;;18.60;12.73;;;9.60;99.90;;;;;;4955794;28;20023;-70
2022/05/01 06:08:46;;;;;;;20.33;13.10;;;9.60;99.90;;;;;;4979845;28;20492;-71
2022/05/01 06:11:12;;;;;;;20.92;14.02;;;9.60;99.90;;;;;;5011202;23;20050;-71
2022/05/01 06:13:38;;;;;;;19.20;13.32;;;9.60;99.90;;;;;;4981253;28;20460;-70
2022/05/01 06:16:05;;;;;;;18.67;13.63;;;9.60;99.90;;;;;;4985064;28;20526;-70
2022/05/01 06:18:31;;;;;;;19.25;13.50;;;9.60;99.90;;;;;;4976200;28;20022;-70
2022/05/01 06:20:59;;;;;;;21.70;14.10;;;9.70;99.90;;;;;;4993924;28;20033;-72
2022/05/01 06:23:25;;;;;;;21.80;13.35;;;9.70;99.90;;;;;;4976788;28;20033;-72
2022/05/01 06:25:51;;;;;;;21.92;13.15;;;9.80;99.90;;;;;;4976509;28;20026;-69
2022/05/01 06:28:17;;;;;;;20.27;13.40;;;9.80;99.90;;;;;;4959927;28;20407;-70
2022/05/01 06:30:45;;;;;;;20.85;13.55;;;9.80;99.90;;;;;;4991136;28;20061;-71
2022/05/01 06:33:17;;;;;;;22.52;12.80;;;9.90;99.90;;;;;;4993568;28;20045;-70
2022/05/01 06:35:49;;;;;;;21.88;12.93;;;10.00;99.90;;;;;;4993583;28;20483;-70
2022/05/01 06:38:15;;;;;;;18.85;12.75;;;10.00;99.90;;;;;;4993870;28;20057;-70
2022/05/01 06:40:43;;;;;;;22.33;14.35;;;10.00;99.90;;;;;;4993841;28;20030;-70
2022/05/01 06:43:11;;;;;;;22.45;12.43;;;10.10;99.90;;;;;;4975917;28;20038;-69
2022/05/01 06:45:36;;;;;;;20.00;13.05;;;10.10;99.90;;;;;;4993606;28;20026;-69
2022/05/01 06:48:02;;;;;;;19.13;13.18;;;10.20;99.90;;;;;;4992959;28;20526;-70
2022/05/01 06:50:29;;;;;;;21.63;13.68;;;10.30;99.90;;;;;;4992387;28;20408;-70
2022/05/01 06:52:55;;;;;;;17.77;12.50;;;10.40;99.90;;;;;;4998152;28;20030;-71
2022/05/01 06:55:23;;;;;;;18.65;12.10;;;10.40;99.90;;;;;;5012761;28;20033;-71
2022/05/01 06:57:49;;;;;;;19.73;12.60;;;10.40;99.90;;;;;;5012857;28;20108;-71
2022/05/01 07:00:17;;;;;;;16.98;11.30;;;10.40;99.90;;;;;;5012794;28;20453;-70
2022/05/01 07:02:49;;;;;;;16.80;11.63;;;10.40;99.90;;;;;;5012800;28;20109;-70
2022/05/01 07:05:17;;;;;;;19.75;12.93;;;10.40;99.90;;;;;;4995130;28;20494;-69
2022/05/01 07:07:43;;;;;;;20.27;12.85;;;10.50;99.90;;;;;;5012708;28;20461;-71
2022/05/01 07:10:10;;;;;;;21.73;13.63;;;10.50;99.90;;;;;;4994275;28;20065;-70
2022/05/01 07:12:35;;;;;;;19.38;13.40;;;10.60;99.90;;;;;;5012453;28;20034;-71
2022/05/01 07:15:02;;;;;;;21.50;13.70;;;10.50;99.90;;;;;;4994877;28;20029;-70
2022/05/01 07:17:28;;;;;;;20.25;13.00;;;10.60;99.90;;;;;;5012754;28;20418;-70
2022/05/01 07:19:53;;;;;;;24.38;14.63;;;10.50;99.90;;;;;;5012061;28;20088;-71
2022/05/01 07:22:19;;;;;;;21.83;13.65;;;10.50;99.90;;;;;;4976905;28;20050;-70
2022/05/01 07:24:45;;;;;;;20.80;13.68;;;10.60;99.90;;;;;;4973303;28;20027;-70
2022/05/01 07:27:11;;;;;;;21.35;13.50;;;10.50;99.90;;;;;;4956216;28;20031;-71
2022/05/01 07:29:36;;;;;;;19.50;13.25;;;10.60;99.90;;;;;;4973330;28;20027;-70
2022/05/01 07:32:02;;;;;;;19.30;13.10;;;10.70;99.90;;;;;;4973406;28;20035;-70
2022/05/01 07:34:28;;;;;;;21.50;13.27;;;10.80;99.90;;;;;;4956419;28;20377;-71
2022/05/01 07:36:54;;;;;;;22.25;13.85;;;10.80;99.90;;;;;;4973815;28;20031;-71
2022/05/01 07:39:19;;;;;;;23.10;14.48;;;10.80;99.90;;;;;;4992563;28;20037;-71
2022/05/01 07:41:45;;;;;;;21.10;14.40;;;10.90;99.90;;;;;;4992489;28;20033;-71
2022/05/01 07:44:11;;;;;;;23.08;15.57;;;10.90;99.90;;;;;;4992583;28;20018;-71
2022/05/01 07:46:38;;;;;;;25.40;15.73;;;11.00;99.90;;;;;;4992667;28;20023;-71
2022/05/01 07:49:05;;;;;;;24.05;15.27;;;11.00;99.90;;;;;;4992861;28;20415;-71
2022/05/01 07:51:30;;;;;;;26.92;15.38;;;11.10;99.90;;;;;;4985669;28;20081;-72
2022/05/01 07:53:58;;;;;;;28.27;15.82;;;11.10;99.90;;;;;;4992339;28;20030;-72
2022/05/01 07:56:25;;;;;;;26.42;15.48;;;11.20;99.90;;;;;;4991892;28;20026;-71
2022/05/01 07:58:51;;;;;;;25.73;14.82;;;11.20;99.90;;;;;;4974935;28;20026;-71
2022/05/01 08:01:16;;;;;;;27.88;16.15;;;11.20;99.90;;;;;;4992225;28;20049;-72
2022/05/01 08:06:26;;;;;;;26.02;16.00;;;11.30;99.90;;;;;;4986379;28;20078;-71
2022/05/01 08:08:52;;;;;;;29.65;16.95;;;11.30;99.90;;;;;;4990719;28;20471;-72
2022/05/01 08:11:17;;;;;;;25.17;15.27;;;11.30;99.90;;;;;;4972693;28;20042;-71
2022/05/01 08:13:43;;;;;;;27.95;16.30;;;11.20;99.90;;;;;;4974153;28;20105;-71
2022/05/01 08:16:09;;;;;;;27.73;15.73;;;11.20;99.90;;;;;;4969326;28;20022;-71
2022/05/01 08:21:19;;;;;;;;;;;11.10;99.90;;;;;;4986993;28;20132;-73
2022/05/01 08:23:45;;;;;;;35.97;18.80;;;11.00;99.90;;;;;;4990354;28;20016;-71
2022/05/01 08:26:11;;;;;;;28.20;16.80;;;10.90;99.90;;;;;;4992837;28;20026;-71
2022/05/01 08:28:41;;;;;;;30.95;17.50;;;10.80;99.90;;;;;;4995370;28;20026;-71
2022/05/01 08:31:08;;;;;;;28.38;16.83;;;10.80;99.90;;;;;;4980977;28;20142;-73
2022/05/01 08:33:35;;;;;;;30.50;17.33;;;10.80;99.90;;;;;;4990713;28;20026;-73
2022/05/01 08:36:03;;;;;;;30.23;17.48;;;10.80;99.90;;;;;;4995744;28;20022;-72
2022/05/01 08:38:30;;;;;;;28.73;16.67;;;10.90;99.90;;;;;;4978470;28;20019;-72
2022/05/01 08:40:56;;;;;;;27.13;15.77;;;11.10;99.90;;;;;;4978238;28;20026;-72
2022/05/01 08:43:23;;;;;;;38.03;19.48;;;10.90;99.90;;;;;;4995354;28;20030;-72
2022/05/01 08:46:10;;;;;;;31.60;17.88;;;10.90;99.90;;;;;;4985971;28;20113;-72
2022/05/01 08:49:01;;;;;;;31.02;18.10;;;10.90;99.90;;;;;;4993872;28;20113;-72
2022/05/01 08:51:48;;;;;;;36.08;19.80;;;11.00;99.90;;;;;;4986802;28;20521;-70
2022/05/01 08:54:16;;;;;;;31.80;18.10;;;11.20;99.90;;;;;;4977912;28;20348;-71
2022/05/01 08:56:44;;;;;;;29.83;17.60;;;11.30;99.90;;;;;;4977932;28;20054;-71
2022/05/01 08:59:14;;;;;;;32.53;17.83;;;11.40;99.90;;;;;;4980826;28;20027;-72
2022/05/01 09:01:42;;;;;;;32.95;17.30;;;11.50;99.90;;;;;;4975756;28;20026;-72
2022/05/01 09:04:12;;;;;;;39.38;20.23;;;11.50;99.90;;;;;;4975801;28;20113;-72
2022/05/01 09:06:38;;;;;;;29.98;18.73;;;11.60;99.90;;;;;;4974797;28;20422;-71
2022/05/01 09:09:09;;;;;;;28.17;17.02;;;11.70;99.90;;;;;;4958331;28;20081;-71
2022/05/01 09:14:24;;;;;;;28.90;18.45;;;11.70;99.90;;;;;;4976124;28;20037;-71
2022/05/01 09:17:17;;;;;;;30.25;19.02;;;11.90;99.90;;;;;;4984361;28;20030;-72
2022/05/01 09:19:44;;;;;;;28.02;16.88;;;12.10;99.90;;;;;;4995004;28;20484;-70
2022/05/01 09:22:11;;;;;;;25.83;15.10;;;12.20;99.90;;;;;;4995001;28;20446;-72
2022/05/01 09:24:37;;;;;;;29.95;18.10;;;12.30;99.90;;;;;;4994571;28;20040;-71
2022/05/01 09:27:03;;;;;;;27.38;15.60;;;12.20;99.90;;;;;;4973669;28;20041;-71
2022/05/01 09:29:32;;;;;;;27.67;16.92;;;12.20;99.90;;;;;;4993699;28;20058;-72
2022/05/01 09:32:03;;;;;;;30.67;17.33;;;12.20;99.90;;;;;;4974796;28;20062;-71
2022/05/01 09:34:37;;;;;;;28.23;16.98;;;12.20;99.90;;;;;;4994341;28;20447;-70
2022/05/01 09:37:18;;;;;;;32.85;17.55;;;12.20;99.90;;;;;;4994818;28;20030;-71
2022/05/01 09:39:49;;;;;;;26.23;16.05;;;12.10;99.90;;;;;;4994768;28;20027;-70
2022/05/01 09:42:19;;;;;;;31.35;18.15;;;12.40;99.90;;;;;;4993302;28;20034;-71
2022/05/01 09:45:24;;;;;;;28.25;16.08;;;12.50;99.90;;;;;;4994307;28;20023;-71
2022/05/01 09:47:50;;;;;;;28.02;14.88;;;12.70;99.90;;;;;;4974519;28;20066;-71
2022/05/01 09:50:16;;;;;;;26.98;15.73;;;12.80;99.90;;;;;;4975058;28;20057;-71
2022/05/01 09:53:01;;;;;;;30.83;15.52;;;13.10;99.90;;;;;;4963278;28;20136;-70
2022/05/01 09:55:28;;;;;;;25.70;14.70;;;12.90;99.90;;;;;;4977096;28;20390;-70
2022/05/01 09:58:04;;;;;;;26.15;15.27;;;13.10;99.90;;;;;;4994341;28;20019;-70
2022/05/01 10:00:42;;;;;;;24.83;14.85;;;13.20;99.90;;;;;;4994517;28;20031;-70
2022/05/01 10:03:28;;;;;;;30.02;16.40;;;13.40;99.90;;;;;;4976617;28;20030;-71
2022/05/01 10:05:55;;;;;;;33.45;17.50;;;13.50;99.90;;;;;;4976943;28;20483;-71
2022/05/01 10:08:22;;;;;;;39.00;17.63;;;13.70;99.90;;;;;;4976566;28;20018;-71
2022/05/01 10:10:51;;;;;;;22.33;13.35;;;13.80;99.90;;;;;;4978858;28;20537;-71
2022/05/01 10:13:17;;;;;;;37.25;20.00;;;14.00;99.90;;;;;;4977063;28;20026;-71
2022/05/01 10:15:43;;;;;;;79.45;34.28;;;14.20;99.90;;;;;;4975932;28;20054;-71
2022/05/01 10:18:11;;;;;;;38.75;18.98;;;14.50;99.90;;;;;;4994041;28;20083;-71
2022/05/01 10:20:37;;;;;;;20.33;12.50;;;14.40;99.90;;;;;;4989913;28;20037;-71
2022/05/01 10:23:03;;;;;;;20.73;13.63;;;14.60;99.90;;;;;;4993393;28;20030;-71
2022/05/01 10:25:35;;;;;;;27.88;16.38;;;14.20;99.90;;;;;;4992541;28;20046;-70
2022/05/01 10:28:28;;;;;;;25.15;14.82;;;14.20;99.90;;;;;;4990384;28;20026;-71
2022/05/01 10:34:18;;;;;;;48.45;26.10;;;14.30;99.90;;;;;;4993664;28;20037;-71
2022/05/01 10:37:09;;;;;;;22.70;14.40;;;14.50;99.90;;;;;;4993677;28;20081;-72
2022/05/01 10:39:38;;;;;;;21.20;12.85;;;14.40;99.90;;;;;;4991874;28;20439;-71
2022/05/01 10:42:04;;;;;;;19.58;12.95;;;14.30;99.90;;;;;;4992634;28;20395;-72
2022/05/01 10:44:36;;;;;;;18.88;12.35;;;14.20;99.90;;;;;;4987913;28;20098;-72
2022/05/01 10:47:38;;;;;;;20.73;12.15;;;14.30;99.90;;;;;;4986757;28;20040;-69
2022/05/01 10:50:11;;;;;;;20.75;12.45;;;14.40;99.90;;;;;;4987412;28;20026;-71
2022/05/01 10:53:05;;;;;;;25.50;14.43;;;14.40;99.80;;;;;;4969575;28;20034;-70
2022/05/01 10:55:51;;;;;;;;;;;14.40;99.90;;;;;;4982561;28;20487;-70
2022/05/01 10:58:26;;;;;;;41.97;22.60;;;14.50;99.80;;;;;;4989900;28;19917;-70
2022/05/01 11:00:54;;;;;;;33.78;15.57;;;14.50;99.50;;;;;;4987689;28;20116;-72
2022/05/01 11:03:23;;;;;;;25.70;15.45;;;14.50;99.30;;;;;;4990704;28;21298;-73
2022/05/01 11:05:54;;;;;;;32.97;18.55;;;14.50;99.70;;;;;;4984613;28;20450;-73
2022/05/01 11:08:23;;;;;;;22.10;13.80;;;14.40;99.10;;;;;;4985215;28;20046;-69
2022/05/01 11:10:53;;;;;;;19.88;12.75;;;14.40;98.90;;;;;;4966283;28;20062;-71
2022/05/01 11:13:19;;;;;;;41.58;18.42;;;14.40;98.80;;;;;;4983849;28;20455;-70
2022/05/01 11:15:47;;;;;;;48.80;21.48;;;14.40;98.80;;;;;;4980737;28;20097;-73
2022/05/01 11:18:13;;;;;;;31.17;16.10;;;14.60;99.10;;;;;;4989117;28;20022;-72
2022/05/01 11:20:39;;;;;;;25.65;14.43;;;14.70;98.80;;;;;;4972187;28;20045;-70
2022/05/01 11:23:31;;;;;;;18.27;10.98;;;14.80;98.30;;;;;;4989746;28;20109;-71
2022/05/01 11:26:13;;;;;;;34.97;19.08;;;15.10;97.70;;;;;;4990350;28;20093;-70
2022/05/01 11:28:43;;;;;;;23.90;13.05;;;15.30;97.50;;;;;;4982108;28;20026;-71
2022/05/01 11:31:37;;;;;;;18.55;11.15;;;15.40;96.80;;;;;;4979575;28;20029;-71
2022/05/01 11:34:22;;;;;;;19.33;13.05;;;15.20;96.60;;;;;;4990513;28;20519;-71
2022/05/01 11:37:09;;;;;;;17.70;11.73;;;14.90;97.10;;;;;;4990437;28;20534;-66
2022/05/01 11:39:50;;;;;;;20.60;13.45;;;14.90;97.60;;;;;;4981680;28;20121;-73
2022/05/01 11:42:25;;;;;;;22.08;13.90;;;14.80;96.90;;;;;;4989499;28;20042;-75
2022/05/01 11:44:55;;;;;;;22.65;11.32;;;14.80;97.00;;;;;;4991396;28;20022;-75
2022/05/01 11:47:22;;;;;;;18.20;11.57;;;14.50;96.50;;;;;;4992842;28;20014;-72
2022/05/01 11:49:48;;;;;;;17.02;10.75;;;14.50;96.90;;;;;;4990241;28;20026;-70
2022/05/01 11:52:15;;;;;;;15.43;10.65;;;14.40;96.80;;;;;;4992188;28;20383;-73
2022/05/01 11:54:50;;;;;;;19.08;11.52;;;14.40;96.90;;;;;;4992563;28;20037;-74
2022/05/01 12:03:06;;;;;;;15.65;9.60;;;14.50;96.20;;;;;;4996035;28;20542;-71
2022/05/01 12:05:48;;;;;;;13.90;9.52;;;14.60;96.20;;;;;;4996376;28;20491;-72
2022/05/01 12:08:14;;;;;;;13.23;9.48;;;14.60;95.90;;;;;;4996108;28;20391;-72
2022/05/01 12:10:42;;;;;;;15.30;8.90;;;14.60;96.20;;;;;;4995830;23;20063;-70
2022/05/01 12:13:28;;;;;;;17.92;12.02;;;14.70;95.70;;;;;;4966636;28;20513;-70
2022/05/01 12:15:54;;;;;;;15.55;10.55;;;14.60;95.60;;;;;;4965369;28;20119;-70
2022/05/01 12:18:21;;;;;;;11.32;7.45;;;14.80;95.90;;;;;;4964659;28;20031;-71
2022/05/01 12:20:46;;;;;;;12.43;7.55;;;14.80;95.70;;;;;;4945129;28;20027;-70
2022/05/01 12:23:20;;;;;;;11.30;7.90;;;15.10;95.50;;;;;;4946538;28;20523;-70
2022/05/01 12:25:50;;;;;;;11.98;7.93;;;15.40;94.70;;;;;;4934096;29;20035;-70
2022/05/01 12:28:18;;;;;;;13.77;7.55;;;15.60;94.00;;;;;;4946539;28;20480;-70
2022/05/01 12:30:45;;;;;;;10.10;7.55;;;15.40;93.70;;;;;;4933696;28;20031;-70
2022/05/01 12:33:24;;;;;;;13.10;7.30;;;15.30;93.50;;;;;;4949938;28;20027;-70
2022/05/01 12:35:59;;;;;;;11.50;7.47;;;15.30;93.60;;;;;;4946305;28;20058;-70
2022/05/01 12:38:27;;;;;;;12.02;7.25;;;15.30;93.30;;;;;;4935020;28;20046;-70
2022/05/01 12:43:50;;;;;;;13.68;7.72;;;15.60;92.60;;;;;;4947776;28;20545;-70
2022/05/01 12:46:30;;;;;;;12.65;8.18;;;15.70;92.70;;;;;;4944074;28;20028;-70
2022/05/01 12:48:56;;;;;;;10.43;7.20;;;16.00;92.10;;;;;;4949010;28;20028;-71
2022/05/01 12:51:25;;;;;;;9.30;6.78;;;16.10;91.50;;;;;;4943768;28;20396;-70
2022/05/01 12:54:08;;;;;;;10.40;7.50;;;16.10;91.40;;;;;;4949521;28;20522;-70
2022/05/01 12:56:34;;;;;;;10.15;6.85;;;16.10;91.30;;;;;;4948732;28;20027;-70
2022/05/01 12:59:20;;;;;;;10.45;6.22;;;16.20;91.20;;;;;;4947433;28;20025;-70
2022/05/01 13:01:45;;;;;;;10.57;6.70;;;16.40;91.20;;;;;;4945070;28;20039;-70
2022/05/01 13:04:24;;;;;;;13.30;8.88;;;16.40;90.60;;;;;;4942260;28;20034;-70
2022/05/01 13:06:50;;;;;;;10.23;6.13;;;16.30;90.30;;;;;;4944038;28;20023;-71
2022/05/01 13:09:16;;;;;;;8.02;5.60;;;16.50;89.80;;;;;;4946929;28;20035;-70
2022/05/01 13:11:58;;;;;;;9.07;6.45;;;16.30;89.70;;;;;;4944020;28;20086;-70
2022/05/01 13:14:33;;;;;;;8.70;6.53;;;16.30;89.90;;;;;;4946415;28;20102;-70